Time;durP1;ratioP1;P1;durP2;ratioP2;P2;SDS_P1;SDS_P2;PMS_P1;PMS_P2;Temp;Humidity;BMP_temperature;BMP_pressure;BME280_temperature;BME280_humidity;BME280_pressure;Samples;Min_cycle;Max_cycle;Signal;HPM_P1;HPM_P2
2021/03/10 00:00:09;;;;;;;12.77;5.38;;;0.60;81.60;;;;;;5056136;28;20028;-74
2021/03/10 00:02:35;;;;;;;15.20;6.15;;;0.60;82.20;;;;;;5049350;28;20136;-75
2021/03/10 00:05:01;;;;;;;11.02;5.75;;;0.60;82.10;;;;;;5054596;28;20515;-75
2021/03/10 00:07:26;;;;;;;11.73;5.97;;;0.60;81.50;;;;;;5052564;28;20071;-71
2021/03/10 00:09:53;;;;;;;14.48;5.45;;;0.60;81.50;;;;;;5056602;28;20021;-73
2021/03/10 00:12:22;;;;;;;11.35;5.78;;;0.60;81.20;;;;;;5072566;28;20040;-75
2021/03/10 00:14:47;;;;;;;12.57;6.13;;;0.50;81.10;;;;;;5050367;28;20032;-73
2021/03/10 00:17:13;;;;;;;15.95;5.95;;;0.50;82.20;;;;;;5061047;28;20024;-72
2021/03/10 00:19:40;;;;;;;12.10;5.85;;;0.40;82.50;;;;;;5054567;28;20052;-72
2021/03/10 00:22:05;;;;;;;15.82;6.13;;;0.30;82.10;;;;;;5056018;28;20462;-72
2021/03/10 00:24:31;;;;;;;14.50;6.13;;;0.30;82.60;;;;;;5049896;28;20052;-73
2021/03/10 00:26:56;;;;;;;15.73;6.03;;;0.30;82.50;;;;;;5050062;28;20075;-73
2021/03/10 00:29:22;;;;;;;10.70;5.70;;;0.30;82.90;;;;;;5064190;28;20063;-73
2021/03/10 00:31:47;;;;;;;13.38;6.38;;;0.30;84.00;;;;;;5055494;28;20480;-73
2021/03/10 00:34:13;;;;;;;9.13;4.97;;;0.20;83.40;;;;;;5053397;28;20499;-72
2021/03/10 00:36:38;;;;;;;14.15;6.32;;;0.20;83.00;;;;;;5053435;28;20754;-73
2021/03/10 00:39:04;;;;;;;15.15;6.22;;;0.10;82.60;;;;;;5051372;28;20031;-73
2021/03/10 00:41:29;;;;;;;14.95;6.03;;;0.10;83.70;;;;;;5060885;28;20442;-73
2021/03/10 00:43:55;;;;;;;14.27;6.25;;;0.20;83.00;;;;;;5060282;28;20029;-73
2021/03/10 00:46:20;;;;;;;11.18;5.82;;;0.10;84.30;;;;;;5065984;28;20080;-73
2021/03/10 00:48:46;;;;;;;11.13;5.38;;;0.10;84.90;;;;;;5058133;28;20048;-73
2021/03/10 00:51:12;;;;;;;12.02;5.78;;;0.20;84.60;;;;;;5062599;28;20460;-72
2021/03/10 00:53:37;;;;;;;10.82;5.15;;;0.20;83.80;;;;;;5055908;28;20013;-73
2021/03/10 00:56:03;;;;;;;13.00;5.70;;;0.10;84.70;;;;;;5058708;28;20094;-72
2021/03/10 00:58:29;;;;;;;13.65;5.30;;;0.10;84.10;;;;;;5051799;28;20115;-73
2021/03/10 01:00:54;;;;;;;12.25;5.85;;;0.10;83.80;;;;;;5066979;28;20530;-73
2021/03/10 01:03:20;;;;;;;10.75;5.25;;;0.20;83.90;;;;;;5054026;28;20020;-73
2021/03/10 01:05:45;;;;;;;12.02;5.25;;;0.10;84.50;;;;;;5060208;28;20031;-73
2021/03/10 01:08:11;;;;;;;12.77;5.38;;;0.10;84.20;;;;;;5050209;28;20029;-73
2021/03/10 01:10:39;;;;;;;8.13;4.53;;;0.00;84.80;;;;;;5051162;28;20021;-73
2021/03/10 01:13:05;;;;;;;10.30;5.32;;;0.10;83.90;;;;;;5050721;28;20580;-73
2021/03/10 01:15:30;;;;;;;12.15;5.15;;;0.10;83.60;;;;;;5067357;28;20032;-73
2021/03/10 01:17:56;;;;;;;13.65;5.65;;;0.20;83.50;;;;;;5061829;28;20393;-73
2021/03/10 01:20:23;;;;;;;12.68;6.13;;;0.10;84.10;;;;;;5050564;28;20021;-73
2021/03/10 01:22:49;;;;;;;12.98;4.97;;;0.10;83.80;;;;;;5049635;28;20055;-72
2021/03/10 01:25:15;;;;;;;12.82;5.47;;;0.00;84.20;;;;;;5057895;28;20480;-73
2021/03/10 01:27:41;;;;;;;12.30;5.47;;;0.00;84.70;;;;;;5059117;28;20056;-73
2021/03/10 01:30:09;;;;;;;12.10;4.93;;;0.10;83.80;;;;;;5066067;28;20669;-73
2021/03/10 01:32:35;;;;;;;8.93;4.43;;;0.10;84.20;;;;;;5057079;28;20531;-72
2021/03/10 01:35:01;;;;;;;10.40;5.35;;;0.00;84.40;;;;;;5064927;28;20030;-73
2021/03/10 01:37:27;;;;;;;12.75;5.63;;;0.10;83.80;;;;;;5058487;28;20055;-73
2021/03/10 01:39:52;;;;;;;10.13;5.50;;;0.10;83.40;;;;;;5053569;28;20036;-73
2021/03/10 01:42:18;;;;;;;10.48;4.80;;;0.00;83.80;;;;;;5049693;28;20043;-72
2021/03/10 01:44:43;;;;;;;12.32;5.65;;;0.00;84.20;;;;;;5053091;28;20086;-73
2021/03/10 01:47:09;;;;;;;10.02;4.63;;;0.00;84.60;;;;;;5061613;28;20041;-73
2021/03/10 01:49:35;;;;;;;10.32;5.05;;;0.00;84.20;;;;;;5051896;28;20024;-73
2021/03/10 01:52:01;;;;;;;9.50;5.30;;;0.00;84.40;;;;;;5047526;28;20048;-73
2021/03/10 01:54:27;;;;;;;12.10;5.38;;;0.00;85.30;;;;;;5057955;28;20479;-73
2021/03/10 01:56:52;;;;;;;9.75;4.53;;;-0.10;85.00;;;;;;5057970;28;20029;-73
2021/03/10 01:59:18;;;;;;;11.88;6.10;;;-0.10;86.10;;;;;;5052870;28;20025;-72
2021/03/10 02:01:43;;;;;;;10.27;5.18;;;-0.10;86.20;;;;;;5054699;28;20029;-73
2021/03/10 02:04:10;;;;;;;11.30;5.05;;;-0.20;86.60;;;;;;5062264;28;20035;-72
2021/03/10 02:07:08;;;;;;;10.18;4.43;;;-0.30;87.20;;;;;;5040802;28;20479;-72
2021/03/10 02:10:08;;;;;;;11.60;4.60;;;-0.30;86.90;;;;;;5055543;28;20032;-73
2021/03/10 02:13:20;;;;;;;10.50;4.53;;;-0.30;87.80;;;;;;5055417;28;20851;-72
2021/03/10 02:15:51;;;;;;;8.82;4.32;;;-0.30;87.50;;;;;;5025243;28;20024;-72
2021/03/10 02:18:30;;;;;;;10.80;4.97;;;-0.30;87.40;;;;;;5057582;28;20074;-72
2021/03/10 02:20:59;;;;;;;10.10;4.40;;;-0.30;87.30;;;;;;5055722;28;20032;-73
2021/03/10 02:23:49;;;;;;;10.00;4.75;;;-0.30;87.80;;;;;;5061218;28;20032;-73
2021/03/10 02:26:33;;;;;;;9.32;4.82;;;-0.30;87.50;;;;;;5049548;28;20032;-73
2021/03/10 02:29:06;;;;;;;12.10;5.18;;;-0.30;88.50;;;;;;5056799;28;20430;-73
2021/03/10 02:31:43;;;;;;;11.75;5.03;;;-0.30;87.60;;;;;;5052881;28;20021;-72
2021/03/10 02:34:09;;;;;;;12.63;5.07;;;-0.30;87.30;;;;;;5059152;28;20032;-73
2021/03/10 02:36:36;;;;;;;11.95;5.03;;;-0.30;87.50;;;;;;5062145;28;20546;-72
2021/03/10 02:39:03;;;;;;;8.88;4.18;;;-0.40;86.90;;;;;;5049100;28;20048;-73
2021/03/10 02:41:31;;;;;;;9.88;4.40;;;-0.40;86.90;;;;;;5061461;28;20059;-73
2021/03/10 02:43:57;;;;;;;9.32;4.70;;;-0.40;86.50;;;;;;5059528;28;20064;-73
2021/03/10 02:46:25;;;;;;;8.05;4.20;;;-0.50;86.20;;;;;;5058849;28;20027;-74
2021/03/10 02:48:51;;;;;;;8.38;4.30;;;-0.40;87.30;;;;;;5049669;28;20159;-74
2021/03/10 02:51:17;;;;;;;13.55;5.32;;;-0.50;87.30;;;;;;5055521;28;20121;-74
2021/03/10 02:53:44;;;;;;;11.93;4.35;;;-0.50;88.60;;;;;;5052909;28;20045;-74
2021/03/10 02:56:11;;;;;;;10.07;4.80;;;-0.50;88.10;;;;;;5060586;28;20017;-73
2021/03/10 02:58:41;;;;;;;10.23;4.93;;;-0.50;88.10;;;;;;5059942;28;20108;-74
2021/03/10 03:01:08;;;;;;;11.65;4.85;;;-0.60;88.10;;;;;;5050883;28;20687;-74
2021/03/10 03:03:33;;;;;;;11.30;4.50;;;-0.60;88.60;;;;;;5046443;28;20255;-73
2021/03/10 03:05:59;;;;;;;10.80;4.80;;;-0.70;88.90;;;;;;5050881;28;20514;-73
2021/03/10 03:08:25;;;;;;;10.23;5.03;;;-0.70;88.70;;;;;;5057975;28;20037;-74
2021/03/10 03:10:52;;;;;;;13.05;5.47;;;-0.80;88.10;;;;;;5060691;28;20029;-74
2021/03/10 03:13:20;;;;;;;10.18;4.18;;;-0.70;87.90;;;;;;5053646;28;20159;-73
2021/03/10 03:15:52;;;;;;;9.40;5.10;;;-0.80;88.10;;;;;;5057576;28;20808;-73
2021/03/10 03:18:18;;;;;;;11.65;4.95;;;-0.90;89.00;;;;;;5053739;28;20039;-77
2021/03/10 03:20:44;;;;;;;10.77;5.13;;;-0.90;88.70;;;;;;5054064;28;20037;-73
2021/03/10 03:23:10;;;;;;;9.13;4.57;;;-0.80;88.80;;;;;;5056216;28;20028;-73
2021/03/10 03:25:39;;;;;;;13.52;5.15;;;-0.90;89.20;;;;;;5059633;28;20039;-74
2021/03/10 03:28:09;;;;;;;12.18;4.90;;;-0.90;89.10;;;;;;5056971;28;20467;-73
2021/03/10 03:30:37;;;;;;;12.20;4.57;;;-0.90;88.90;;;;;;5061345;28;20021;-73
2021/03/10 03:33:15;;;;;;;14.18;5.03;;;-0.90;89.20;;;;;;5057941;28;20047;-73
2021/03/10 03:35:43;;;;;;;16.38;5.55;;;-0.90;89.10;;;;;;5058837;28;20074;-73
2021/03/10 03:38:08;;;;;;;10.90;4.60;;;-1.00;89.10;;;;;;5058961;28;20032;-73
2021/03/10 03:40:35;;;;;;;10.18;4.97;;;-1.00;89.40;;;;;;5055115;28;20025;-73
2021/03/10 03:43:01;;;;;;;9.15;4.63;;;-1.10;90.20;;;;;;5063979;28;20147;-73
2021/03/10 03:45:27;;;;;;;12.70;5.18;;;-1.20;90.20;;;;;;5066386;28;20031;-73
2021/03/10 03:47:55;;;;;;;9.45;5.25;;;-1.20;90.00;;;;;;5059506;28;20037;-74
2021/03/10 03:50:22;;;;;;;9.80;4.97;;;-1.20;90.00;;;;;;5053891;28;20028;-73
2021/03/10 03:52:48;;;;;;;11.13;5.43;;;-1.20;90.20;;;;;;5035229;28;20427;-74
2021/03/10 03:55:14;;;;;;;8.90;4.60;;;-1.20;90.50;;;;;;5057690;28;20031;-74
2021/03/10 03:57:40;;;;;;;10.60;5.07;;;-1.10;90.00;;;;;;5059701;28;20379;-73
2021/03/10 04:00:09;;;;;;;13.93;5.65;;;-1.10;90.20;;;;;;5054749;28;20108;-71
2021/03/10 04:02:35;;;;;;;9.27;4.43;;;-1.20;90.40;;;;;;5057051;28;20032;-71
2021/03/10 04:05:01;;;;;;;15.00;5.63;;;-1.20;90.20;;;;;;5052402;28;20025;-71
2021/03/10 04:07:26;;;;;;;17.42;5.97;;;-1.30;90.50;;;;;;5057900;28;20020;-71
2021/03/10 04:09:52;;;;;;;10.55;4.70;;;-1.20;90.60;;;;;;5065682;28;20029;-74
2021/03/10 04:12:17;;;;;;;11.63;6.15;;;-1.20;90.20;;;;;;5058849;28;20020;-74
2021/03/10 04:14:43;;;;;;;13.10;5.50;;;-1.20;90.10;;;;;;5061806;28;20017;-74
2021/03/10 04:17:08;;;;;;;13.10;5.43;;;-1.20;90.30;;;;;;5051601;28;20025;-74
2021/03/10 04:19:34;;;;;;;11.68;5.55;;;-1.30;90.50;;;;;;5049689;28;20624;-73
2021/03/10 04:21:59;;;;;;;15.98;5.18;;;-1.40;90.50;;;;;;5052737;28;20112;-74
2021/03/10 04:24:25;;;;;;;10.77;5.05;;;-1.40;90.50;;;;;;5059887;28;20028;-74
2021/03/10 04:26:51;;;;;;;7.97;4.45;;;-1.40;90.00;;;;;;5053167;28;20123;-74
2021/03/10 04:29:17;;;;;;;12.18;5.60;;;-1.40;90.70;;;;;;5057881;28;20033;-73
2021/03/10 04:31:42;;;;;;;12.13;5.28;;;-1.40;90.40;;;;;;5058142;28;20017;-74
2021/03/10 04:34:08;;;;;;;12.10;5.22;;;-1.40;90.80;;;;;;5053423;28;20490;-74
2021/03/10 04:36:33;;;;;;;13.90;5.07;;;-1.50;90.60;;;;;;5061859;28;20139;-74
2021/03/10 04:38:59;;;;;;;13.60;5.93;;;-1.50;90.90;;;;;;5070487;28;20368;-72
2021/03/10 04:41:24;;;;;;;14.13;5.55;;;-1.50;91.10;;;;;;5052287;28;20037;-74
2021/03/10 04:43:50;;;;;;;12.20;5.13;;;-1.60;91.40;;;;;;5056187;28;20181;-73
2021/03/10 04:46:16;;;;;;;12.65;5.20;;;-1.60;91.30;;;;;;5065467;28;20470;-74
2021/03/10 04:48:41;;;;;;;11.32;5.47;;;-1.60;91.60;;;;;;5051409;28;20037;-74
2021/03/10 04:51:07;;;;;;;10.27;4.97;;;-1.70;91.60;;;;;;5051884;28;20074;-74
2021/03/10 04:53:32;;;;;;;12.10;5.30;;;-1.70;91.50;;;;;;5059597;28;20021;-74
2021/03/10 04:55:58;;;;;;;12.68;5.82;;;-1.70;91.50;;;;;;5061620;28;20025;-74
2021/03/10 04:58:23;;;;;;;12.00;4.72;;;-1.70;91.30;;;;;;5050885;28;20128;-73
2021/03/10 05:00:49;;;;;;;10.32;4.95;;;-1.80;91.50;;;;;;5065719;28;20166;-74
2021/03/10 05:03:14;;;;;;;12.23;5.45;;;-1.90;91.80;;;;;;5058749;28;20487;-74
2021/03/10 05:05:40;;;;;;;13.32;5.50;;;-1.80;91.60;;;;;;5056755;28;20040;-74
2021/03/10 05:08:05;;;;;;;14.07;5.80;;;-1.80;91.90;;;;;;5049671;28;20492;-74
2021/03/10 05:10:31;;;;;;;11.65;5.40;;;-1.80;91.40;;;;;;5056718;28;20067;-74
2021/03/10 05:12:56;;;;;;;10.38;5.53;;;-1.70;91.20;;;;;;5056026;28;20029;-73
2021/03/10 05:15:22;;;;;;;15.32;5.55;;;-1.70;91.00;;;;;;5053156;28;20024;-73
2021/03/10 05:17:47;;;;;;;14.27;6.07;;;-1.60;91.40;;;;;;5060721;28;20115;-73
2021/03/10 05:20:13;;;;;;;15.00;6.05;;;-1.70;91.90;;;;;;5064721;28;20033;-73
2021/03/10 05:22:39;;;;;;;14.05;5.78;;;-1.80;92.20;;;;;;5047664;28;20072;-74
2021/03/10 05:25:09;;;;;;;15.35;6.07;;;-1.90;91.90;;;;;;5062497;28;20035;-73
2021/03/10 05:27:36;;;;;;;12.23;6.05;;;-2.00;92.60;;;;;;5047911;28;20032;-74
2021/03/10 05:30:04;;;;;;;12.30;6.10;;;-2.00;92.20;;;;;;5065439;28;20086;-74
2021/03/10 05:32:30;;;;;;;18.70;6.90;;;-1.90;92.20;;;;;;5050951;28;20031;-73
2021/03/10 05:34:55;;;;;;;17.88;6.18;;;-1.90;92.20;;;;;;5063507;28;20029;-73
2021/03/10 05:37:21;;;;;;;14.48;5.80;;;-1.80;91.70;;;;;;5057848;28;20043;-73
2021/03/10 05:39:46;;;;;;;13.77;6.70;;;-1.80;91.60;;;;;;5051252;28;20025;-74
2021/03/10 05:42:12;;;;;;;12.63;5.55;;;-1.90;91.90;;;;;;5058620;28;20017;-74
2021/03/10 05:44:38;;;;;;;11.43;5.68;;;-1.80;91.90;;;;;;5050294;28;20691;-73
2021/03/10 05:47:05;;;;;;;15.43;5.70;;;-1.80;92.30;;;;;;5053491;28;20108;-74
2021/03/10 05:49:31;;;;;;;12.45;5.15;;;-1.90;92.40;;;;;;5066177;28;20025;-73
2021/03/10 05:51:57;;;;;;;13.25;5.57;;;-2.00;92.30;;;;;;5053290;28;20017;-74
2021/03/10 05:54:28;;;;;;;13.70;5.70;;;-2.00;92.40;;;;;;5068115;28;20112;-73
2021/03/10 05:56:53;;;;;;;14.93;4.43;;;-2.00;92.70;;;;;;5055391;28;20029;-74
2021/03/10 05:59:19;;;;;;;16.90;6.70;;;-2.00;93.40;;;;;;5055128;28;20501;-73
2021/03/10 06:01:44;;;;;;;15.82;7.00;;;-1.90;93.10;;;;;;5063142;28;20025;-74
2021/03/10 06:04:10;;;;;;;22.40;9.10;;;-2.00;93.20;;;;;;5058620;28;20033;-74
2021/03/10 06:06:37;;;;;;;25.95;8.15;;;-2.00;93.40;;;;;;5054698;28;20099;-74
2021/03/10 06:09:17;;;;;;;23.83;7.93;;;-1.90;93.40;;;;;;5058669;28;20024;-75
2021/03/10 06:11:55;;;;;;;18.58;8.50;;;-1.80;93.30;;;;;;5047413;28;20017;-75
2021/03/10 06:14:21;;;;;;;24.83;8.98;;;-1.80;93.40;;;;;;5059039;28;20016;-73
2021/03/10 06:16:47;;;;;;;21.98;8.30;;;-1.70;92.80;;;;;;5055922;28;20031;-73
2021/03/10 06:19:13;;;;;;;20.02;7.95;;;-1.70;92.70;;;;;;5049203;28;20055;-73
2021/03/10 06:21:51;;;;;;;21.00;7.35;;;-1.60;92.50;;;;;;5058161;28;20837;-73
2021/03/10 06:24:17;;;;;;;22.70;7.35;;;-1.60;92.50;;;;;;5051330;28;20071;-74
2021/03/10 06:26:54;;;;;;;18.35;7.30;;;-1.50;92.90;;;;;;5058854;28;20032;-74
2021/03/10 06:29:20;;;;;;;16.70;7.72;;;-1.50;92.80;;;;;;5044824;28;20379;-73
2021/03/10 06:31:46;;;;;;;19.23;7.70;;;-1.50;92.90;;;;;;5046359;28;20052;-73
2021/03/10 06:34:13;;;;;;;19.15;8.40;;;-1.40;93.20;;;;;;5048046;28;20013;-74
2021/03/10 06:36:43;;;;;;;18.40;8.20;;;-1.30;92.70;;;;;;5048780;28;20100;-73
2021/03/10 06:39:12;;;;;;;21.30;8.60;;;-1.20;93.00;;;;;;5052913;28;20029;-73
2021/03/10 06:41:42;;;;;;;20.40;8.55;;;-1.20;92.50;;;;;;5054819;28;20099;-73
2021/03/10 06:44:19;;;;;;;24.35;9.38;;;-1.10;92.80;;;;;;5049484;28;20033;-73
2021/03/10 06:46:59;;;;;;;21.15;9.13;;;-1.10;92.80;;;;;;5053320;28;20099;-73
2021/03/10 06:49:26;;;;;;;36.40;10.98;;;-1.00;93.30;;;;;;5056571;28;20037;-73
2021/03/10 06:51:59;;;;;;;26.80;11.30;;;-1.00;93.60;;;;;;5056447;28;20044;-73
2021/03/10 06:54:26;;;;;;;29.17;10.18;;;-0.90;92.70;;;;;;5052788;28;20062;-73
2021/03/10 06:57:17;;;;;;;23.70;10.35;;;-0.80;93.00;;;;;;5056869;28;20137;-73
2021/03/10 06:59:48;;;;;;;22.20;9.63;;;-0.70;92.70;;;;;;5046655;28;20033;-74
2021/03/10 07:02:25;;;;;;;25.65;9.73;;;-0.70;93.10;;;;;;5051942;28;20021;-74
2021/03/10 07:04:58;;;;;;;19.38;8.75;;;-0.70;92.80;;;;;;5064016;28;20033;-73
2021/03/10 07:07:25;;;;;;;24.67;8.30;;;-0.60;92.90;;;;;;5058272;28;20025;-73
2021/03/10 07:09:52;;;;;;;21.83;8.55;;;-0.40;92.30;;;;;;5075447;28;20052;-74
2021/03/10 07:12:19;;;;;;;16.13;7.13;;;-0.20;91.00;;;;;;5058866;28;20158;-73
2021/03/10 07:14:47;;;;;;;16.60;7.03;;;0.00;88.00;;;;;;5059375;28;20141;-74
2021/03/10 07:17:20;;;;;;;36.28;9.60;;;0.10;86.70;;;;;;5052080;28;20028;-74
2021/03/10 07:19:48;;;;;;;17.55;8.25;;;0.20;85.60;;;;;;5063189;28;20028;-73
2021/03/10 07:22:23;;;;;;;18.83;7.63;;;0.30;84.70;;;;;;5050272;28;20029;-74
2021/03/10 07:25:11;;;;;;;23.55;8.90;;;0.50;82.90;;;;;;5055950;28;20047;-72
2021/03/10 07:27:59;;;;;;;19.95;7.88;;;0.60;82.80;;;;;;5053481;28;20238;-73
2021/03/10 07:30:39;;;;;;;17.30;7.53;;;0.70;80.30;;;;;;5031166;28;20082;-72
2021/03/10 07:33:13;;;;;;;26.13;8.20;;;0.80;79.80;;;;;;5053323;28;20029;-73
2021/03/10 07:36:05;;;;;;;24.17;8.60;;;0.90;79.50;;;;;;5055541;28;20144;-72
2021/03/10 07:38:36;;;;;;;24.98;8.05;;;1.10;78.10;;;;;;5059178;28;20047;-73
2021/03/10 07:41:08;;;;;;;18.52;8.43;;;1.10;78.00;;;;;;5053230;28;20079;-72
2021/03/10 07:43:47;;;;;;;19.33;9.15;;;1.20;77.90;;;;;;5064090;28;20040;-72
2021/03/10 07:46:30;;;;;;;20.00;7.78;;;1.30;77.50;;;;;;5063476;28;20024;-76
2021/03/10 07:48:57;;;;;;;29.67;8.85;;;1.40;76.60;;;;;;5060679;28;20055;-69
2021/03/10 07:51:35;;;;;;;22.83;8.77;;;1.50;76.40;;;;;;5049974;28;20017;-70
2021/03/10 07:54:14;;;;;;;21.65;8.27;;;1.60;76.40;;;;;;5068444;28;20025;-70
2021/03/10 07:56:39;;;;;;;21.13;7.93;;;1.70;75.50;;;;;;5068856;28;20107;-70
2021/03/10 07:59:16;;;;;;;27.40;8.32;;;1.80;74.10;;;;;;5067823;28;20116;-68
2021/03/10 08:01:42;;;;;;;34.47;8.73;;;1.90;73.70;;;;;;5064374;28;20085;-69
2021/03/10 08:04:11;;;;;;;28.40;9.27;;;2.00;74.60;;;;;;5067544;28;20662;-69
2021/03/10 08:06:49;;;;;;;20.20;8.18;;;2.10;73.70;;;;;;5055187;28;20039;-69
2021/03/10 08:09:20;;;;;;;21.35;7.82;;;2.20;72.80;;;;;;5067434;28;20055;-69
2021/03/10 08:11:49;;;;;;;31.08;7.65;;;2.30;70.70;;;;;;5060552;28;20081;-71
2021/03/10 08:14:17;;;;;;;20.35;7.68;;;2.50;70.10;;;;;;5061152;28;20024;-70
2021/03/10 08:16:44;;;;;;;25.30;8.88;;;2.60;70.40;;;;;;5061444;28;20025;-70
2021/03/10 08:19:11;;;;;;;22.85;8.43;;;2.70;70.20;;;;;;5067947;28;20107;-70
2021/03/10 08:21:46;;;;;;;30.33;9.70;;;2.80;70.10;;;;;;5064934;28;20036;-70
2021/03/10 08:24:12;;;;;;;21.13;8.32;;;3.00;70.10;;;;;;5063188;28;20029;-70
2021/03/10 08:26:40;;;;;;;38.60;8.23;;;3.10;69.60;;;;;;5066572;28;20029;-70
2021/03/10 08:29:05;;;;;;;21.40;8.02;;;3.20;67.80;;;;;;5064046;28;20395;-71
2021/03/10 08:31:41;;;;;;;19.67;7.72;;;3.30;66.20;;;;;;5059710;28;20111;-70
2021/03/10 08:34:06;;;;;;;28.83;9.48;;;3.40;67.60;;;;;;5041538;28;20031;-70
2021/03/10 08:36:33;;;;;;;19.33;7.00;;;3.60;65.10;;;;;;5064916;28;20024;-71
2021/03/10 08:38:58;;;;;;;21.88;7.43;;;3.70;63.90;;;;;;5061953;28;20084;-70
2021/03/10 08:41:24;;;;;;;26.90;8.18;;;3.80;62.60;;;;;;5061624;28;20746;-70
2021/03/10 08:44:03;;;;;;;23.52;8.18;;;3.90;62.50;;;;;;5061846;28;20029;-71
2021/03/10 08:46:39;;;;;;;20.27;6.93;;;4.00;61.60;;;;;;5056581;28;20029;-70
2021/03/10 08:49:16;;;;;;;15.55;6.18;;;4.20;61.80;;;;;;5057854;28;20049;-70
2021/03/10 08:51:42;;;;;;;21.67;7.03;;;4.30;61.80;;;;;;5059216;28;20032;-70
2021/03/10 08:54:08;;;;;;;20.30;6.90;;;4.40;63.00;;;;;;5063869;28;21145;-70
2021/03/10 08:56:33;;;;;;;17.67;6.70;;;4.50;62.20;;;;;;5062680;28;20122;-70
2021/03/10 08:58:59;;;;;;;14.90;6.60;;;4.70;61.90;;;;;;5064170;28;20089;-70
2021/03/10 09:01:24;;;;;;;13.35;5.80;;;4.80;61.00;;;;;;5061819;28;20032;-70
2021/03/10 09:03:50;;;;;;;21.13;6.93;;;4.90;58.60;;;;;;5064899;28;20482;-73
2021/03/10 09:06:17;;;;;;;17.58;6.57;;;5.00;59.00;;;;;;5065999;28;20044;-74
2021/03/10 09:08:42;;;;;;;13.80;6.32;;;5.10;58.30;;;;;;5064319;28;20379;-70
2021/03/10 09:11:09;;;;;;;21.85;6.68;;;5.20;56.60;;;;;;5064255;28;20035;-71
2021/03/10 09:13:35;;;;;;;13.88;6.93;;;5.30;57.40;;;;;;5063699;28;20103;-70
2021/03/10 09:16:11;;;;;;;12.88;6.40;;;5.40;56.80;;;;;;5064114;28;20107;-71
2021/03/10 09:18:36;;;;;;;20.83;6.70;;;5.50;57.30;;;;;;5060945;28;20036;-71
2021/03/10 09:21:02;;;;;;;14.57;5.95;;;5.60;55.80;;;;;;5063464;28;20029;-72
2021/03/10 09:23:28;;;;;;;15.02;5.80;;;5.60;55.00;;;;;;5065097;28;20029;-71
2021/03/10 09:25:55;;;;;;;18.63;5.50;;;5.60;54.00;;;;;;5063575;28;20415;-69
2021/03/10 09:28:21;;;;;;;14.15;5.70;;;5.80;53.70;;;;;;5061284;28;20041;-73
2021/03/10 09:30:48;;;;;;;11.60;5.18;;;5.90;52.80;;;;;;5062800;28;20436;-74
2021/03/10 09:33:17;;;;;;;11.73;5.13;;;6.00;52.80;;;;;;5062805;28;20052;-72
2021/03/10 09:35:50;;;;;;;12.10;5.57;;;6.10;51.80;;;;;;5061570;28;20032;-72
2021/03/10 09:38:16;;;;;;;9.70;4.82;;;6.20;51.70;;;;;;5060971;28;20039;-72
2021/03/10 09:40:50;;;;;;;12.95;5.38;;;6.30;51.60;;;;;;5065085;28;20024;-71
2021/03/10 09:43:18;;;;;;;14.05;5.63;;;6.50;51.10;;;;;;5062000;28;20089;-72
2021/03/10 09:45:45;;;;;;;12.48;5.38;;;6.60;49.40;;;;;;5061519;28;20078;-72
2021/03/10 09:48:14;;;;;;;14.70;5.22;;;6.60;49.30;;;;;;5064078;28;21273;-71
2021/03/10 09:50:43;;;;;;;10.95;4.00;;;6.70;49.60;;;;;;5058283;28;20098;-70
2021/03/10 09:53:18;;;;;;;13.38;4.90;;;6.80;49.60;;;;;;5060165;28;20021;-69
2021/03/10 09:55:45;;;;;;;11.70;4.43;;;7.00;47.80;;;;;;5061314;28;20021;-69
2021/03/10 09:58:11;;;;;;;10.07;4.72;;;7.00;47.10;;;;;;5063665;28;20062;-70
2021/03/10 10:00:39;;;;;;;7.55;3.92;;;7.10;48.30;;;;;;5057632;28;20461;-69
2021/03/10 10:03:05;;;;;;;9.93;4.15;;;7.30;47.00;;;;;;5055802;28;20036;-70
2021/03/10 10:05:36;;;;;;;9.07;3.97;;;7.50;47.20;;;;;;5057867;28;20036;-69
2021/03/10 10:08:04;;;;;;;9.70;4.38;;;7.70;47.10;;;;;;5057758;28;20661;-69
2021/03/10 10:10:30;;;;;;;9.23;4.10;;;8.00;46.30;;;;;;5061535;28;20463;-70
2021/03/10 10:12:57;;;;;;;10.30;3.80;;;8.20;45.50;;;;;;5064233;28;20042;-70
2021/03/10 10:15:30;;;;;;;9.45;3.72;;;8.40;43.70;;;;;;5062356;28;20066;-72
2021/03/10 10:17:57;;;;;;;6.40;3.70;;;8.40;42.30;;;;;;5060393;28;20032;-72
2021/03/10 10:20:28;;;;;;;8.32;3.92;;;8.50;44.20;;;;;;5057542;28;20024;-72
2021/03/10 10:22:53;;;;;;;8.10;3.83;;;8.60;41.80;;;;;;5058308;28;20560;-72
2021/03/10 10:25:20;;;;;;;9.25;3.78;;;8.70;41.80;;;;;;5065075;28;20032;-72
2021/03/10 10:27:47;;;;;;;8.98;3.95;;;8.80;41.80;;;;;;5060844;28;20471;-72
2021/03/10 10:30:15;;;;;;;6.32;3.47;;;9.00;42.10;;;;;;5057254;28;20024;-72
2021/03/10 10:32:45;;;;;;;9.65;4.50;;;9.10;41.20;;;;;;5057990;28;20035;-71
2021/03/10 10:35:11;;;;;;;9.48;4.45;;;9.20;40.50;;;;;;5063979;28;20040;-71
2021/03/10 10:37:37;;;;;;;5.75;3.33;;;9.30;41.80;;;;;;5055699;28;20403;-71
2021/03/10 10:40:15;;;;;;;10.80;4.00;;;9.30;37.90;;;;;;5043652;28;20025;-71
2021/03/10 10:42:41;;;;;;;7.45;3.42;;;9.40;39.40;;;;;;5060521;28;20032;-71
2021/03/10 10:45:07;;;;;;;5.47;3.00;;;9.50;37.10;;;;;;5049497;28;20396;-71
2021/03/10 10:47:33;;;;;;;6.63;3.10;;;9.60;38.20;;;;;;5052435;28;20051;-71
2021/03/10 10:50:01;;;;;;;5.05;2.67;;;9.50;37.50;;;;;;5063175;28;20102;-70
2021/03/10 10:52:27;;;;;;;8.35;2.85;;;9.50;33.60;;;;;;5057729;28;20032;-70
2021/03/10 10:54:52;;;;;;;4.35;2.80;;;9.60;33.10;;;;;;5058957;28;20504;-70
2021/03/10 10:57:18;;;;;;;4.35;2.53;;;9.60;33.90;;;;;;5055244;28;20033;-71
2021/03/10 10:59:44;;;;;;;6.43;2.85;;;9.60;34.00;;;;;;5057278;28;20035;-70
2021/03/10 11:02:09;;;;;;;4.45;2.60;;;9.70;33.60;;;;;;5059582;28;20419;-70
2021/03/10 11:04:35;;;;;;;6.57;2.55;;;9.80;33.70;;;;;;5062282;28;20028;-70
2021/03/10 11:07:00;;;;;;;9.10;3.20;;;10.00;34.40;;;;;;5056365;28;20035;-70
2021/03/10 11:09:26;;;;;;;6.20;2.83;;;10.20;34.40;;;;;;5055802;28;20024;-70
2021/03/10 11:11:52;;;;;;;6.38;2.80;;;10.40;34.10;;;;;;5060173;28;20487;-71
2021/03/10 11:14:19;;;;;;;7.82;3.30;;;10.50;33.60;;;;;;5053208;28;20024;-70
2021/03/10 11:16:45;;;;;;;6.18;2.65;;;10.60;33.20;;;;;;5058343;28;20032;-73
2021/03/10 11:19:11;;;;;;;6.50;3.65;;;10.70;33.50;;;;;;5054393;28;20499;-70
2021/03/10 11:21:36;;;;;;;8.43;3.97;;;10.70;35.20;;;;;;5058767;28;20446;-69
2021/03/10 11:24:02;;;;;;;5.85;3.40;;;10.80;35.20;;;;;;5056540;28;20033;-69
2021/03/10 11:26:28;;;;;;;9.57;4.00;;;10.90;34.60;;;;;;5057007;28;20086;-72
2021/03/10 11:28:56;;;;;;;7.72;4.07;;;10.90;33.90;;;;;;5059768;28;20036;-71
2021/03/10 11:31:22;;;;;;;7.03;3.72;;;10.90;34.80;;;;;;5054012;28;20309;-71
2021/03/10 11:33:47;;;;;;;8.57;3.67;;;10.90;34.80;;;;;;5061792;28;20398;-71
2021/03/10 11:36:13;;;;;;;7.15;3.40;;;11.00;34.00;;;;;;5062070;28;20055;-71
2021/03/10 11:38:38;;;;;;;7.25;3.78;;;11.00;34.30;;;;;;5044624;28;20429;-71
2021/03/10 11:41:04;;;;;;;6.43;3.47;;;11.10;33.90;;;;;;5060312;28;20032;-71
2021/03/10 11:43:30;;;;;;;9.35;3.85;;;11.40;34.20;;;;;;5060477;28;20463;-72
2021/03/10 11:45:56;;;;;;;5.70;3.53;;;11.70;34.70;;;;;;5062822;28;20021;-71
2021/03/10 11:48:21;;;;;;;7.28;3.30;;;12.00;31.20;;;;;;5060531;28;20049;-71
2021/03/10 11:50:47;;;;;;;4.82;3.13;;;12.30;32.00;;;;;;5059726;28;20078;-72
2021/03/10 11:53:13;;;;;;;5.18;2.70;;;12.50;30.70;;;;;;5058771;28;20052;-72
2021/03/10 11:55:38;;;;;;;3.85;2.65;;;12.80;29.70;;;;;;5055194;28;20372;-71
2021/03/10 11:58:04;;;;;;;6.50;2.38;;;13.20;28.60;;;;;;5060413;28;20041;-71
2021/03/10 12:00:33;;;;;;;5.25;3.08;;;13.30;28.20;;;;;;5062126;28;20087;-72
2021/03/10 12:02:58;;;;;;;7.65;3.85;;;13.30;28.20;;;;;;5059196;28;20060;-71
2021/03/10 12:05:24;;;;;;;5.45;3.22;;;13.50;28.60;;;;;;5060369;28;20063;-71
2021/03/10 12:07:49;;;;;;;4.60;3.03;;;13.50;29.40;;;;;;5056460;28;20045;-71
2021/03/10 12:10:16;;;;;;;9.00;3.90;;;13.60;30.10;;;;;;5064925;28;20033;-72
2021/03/10 12:12:42;;;;;;;5.68;2.88;;;14.10;30.30;;;;;;5059129;28;20032;-71
2021/03/10 12:15:09;;;;;;;7.03;2.75;;;14.20;28.50;;;;;;5059556;28;20052;-71
2021/03/10 12:17:35;;;;;;;6.00;3.03;;;14.40;27.20;;;;;;5065620;28;20039;-72
2021/03/10 12:20:00;;;;;;;5.80;2.75;;;14.60;27.00;;;;;;5067962;28;20032;-72
2021/03/10 12:22:26;;;;;;;4.97;3.10;;;14.80;26.90;;;;;;5066580;28;20030;-72
2021/03/10 12:24:51;;;;;;;7.40;3.17;;;15.00;26.00;;;;;;5068024;28;20043;-71
2021/03/10 12:27:23;;;;;;;3.85;2.92;;;15.40;26.70;;;;;;5065928;28;20028;-71
2021/03/10 12:29:57;;;;;;;7.93;3.65;;;15.50;26.90;;;;;;5067161;28;20024;-71
2021/03/10 12:32:23;;;;;;;7.68;3.78;;;15.50;26.00;;;;;;5068667;28;21142;-72
2021/03/10 12:34:53;;;;;;;5.22;3.33;;;15.80;26.50;;;;;;5068912;28;20020;-71
2021/03/10 12:37:19;;;;;;;5.40;3.35;;;15.70;26.30;;;;;;5067933;28;20651;-71
2021/03/10 12:39:44;;;;;;;5.30;3.47;;;15.50;27.10;;;;;;5066778;28;20032;-71
2021/03/10 12:42:10;;;;;;;6.60;3.30;;;15.40;26.20;;;;;;5065417;28;20028;-69
2021/03/10 12:44:37;;;;;;;8.82;3.83;;;15.50;26.30;;;;;;5063788;28;20056;-71
2021/03/10 12:47:04;;;;;;;5.70;3.38;;;15.80;26.70;;;;;;5063469;28;20029;-70